Time;durP1;ratioP1;P1;durP2;ratioP2;P2;SDS_P1;SDS_P2;PMS_P1;PMS_P2;Temp;Humidity;BMP_temperature;BMP_pressure;BME280_temperature;BME280_humidity;BME280_pressure;Samples;Min_cycle;Max_cycle;Signal;HPM_P1;HPM_P2
2024/03/29 00:00:58;;;;;;;4.60;2.23;;;11.40;99.90;;;;;;4174434;28;20045;-57
2024/03/29 00:02:59;;;;;;;10.10;3.60;;;11.40;99.90;;;;;;4163050;28;20502;-56
2024/03/29 00:05:03;;;;;;;4.33;2.30;;;11.50;99.90;;;;;;4162599;28;20042;-58
2024/03/29 00:07:04;;;;;;;1.93;1.50;;;11.50;99.90;;;;;;4161736;28;20442;-57
2024/03/29 00:09:05;;;;;;;7.03;3.10;;;11.50;99.90;;;;;;4169593;28;20091;-57
2024/03/29 00:11:07;;;;;;;7.20;2.50;;;11.50;99.90;;;;;;4178649;28;20029;-58
2024/03/29 00:13:08;;;;;;;15.63;2.63;;;11.50;99.90;;;;;;4179050;28;20570;-58
2024/03/29 00:15:10;;;;;;;10.27;2.70;;;11.50;99.90;;;;;;4177550;28;20094;-58
2024/03/29 00:17:11;;;;;;;17.70;4.53;;;11.60;99.90;;;;;;4177478;28;20099;-58
2024/03/29 00:19:12;;;;;;;7.97;2.40;;;11.50;99.90;;;;;;4178224;28;20090;-58
2024/03/29 00:21:14;;;;;;;4.27;1.77;;;11.50;99.90;;;;;;4173062;28;20037;-58
2024/03/29 00:23:15;;;;;;;7.17;2.53;;;11.40;99.90;;;;;;4161689;28;20091;-59
2024/03/29 00:25:16;;;;;;;5.93;2.10;;;11.50;99.90;;;;;;4165523;28;20033;-60
2024/03/29 00:27:17;;;;;;;5.60;2.63;;;11.50;99.90;;;;;;4177523;28;20448;-55
2024/03/29 00:29:19;;;;;;;9.93;2.50;;;11.50;99.90;;;;;;4176043;28;20177;-58
2024/03/29 00:31:20;;;;;;;8.20;1.93;;;11.50;99.90;;;;;;4177568;28;20512;-57
2024/03/29 00:33:21;;;;;;;4.87;2.10;;;11.50;99.90;;;;;;4177542;28;20397;-57
2024/03/29 00:35:23;;;;;;;3.80;2.07;;;11.40;99.90;;;;;;4178431;28;20135;-58
2024/03/29 00:37:24;;;;;;;7.23;1.80;;;11.40;99.90;;;;;;4177504;28;20033;-58
2024/03/29 00:39:25;;;;;;;2.07;1.40;;;11.50;99.90;;;;;;4178681;28;20032;-57
2024/03/29 00:41:26;;;;;;;4.80;2.00;;;11.50;99.90;;;;;;4177772;28;20033;-57
2024/03/29 00:43:28;;;;;;;3.43;1.70;;;11.60;99.90;;;;;;4169608;28;20045;-58
2024/03/29 00:45:29;;;;;;;6.67;2.17;;;11.70;99.90;;;;;;4161070;28;20104;-56
2024/03/29 00:47:30;;;;;;;1.70;0.97;;;11.80;99.90;;;;;;4162409;28;20037;-57
2024/03/29 00:49:32;;;;;;;1.47;0.90;;;11.90;99.90;;;;;;4160455;28;20436;-58
2024/03/29 00:51:33;;;;;;;1.93;0.60;;;12.00;99.90;;;;;;4164940;28;20033;-59
2024/03/29 00:53:34;;;;;;;2.13;0.70;;;12.10;99.90;;;;;;4176819;28;20040;-56
2024/03/29 00:55:35;;;;;;;2.33;0.60;;;12.20;99.90;;;;;;4177976;28;20477;-57
2024/03/29 00:57:36;;;;;;;0.50;0.20;;;12.40;99.90;;;;;;4177226;28;20845;-57
2024/03/29 00:59:38;;;;;;;1.10;0.20;;;12.50;99.90;;;;;;4175763;28;20048;-57
2024/03/29 01:01:39;;;;;;;2.73;0.20;;;12.60;99.90;;;;;;4162564;28;20046;-55
2024/03/29 01:03:40;;;;;;;0.53;0.20;;;12.90;99.90;;;;;;4161098;28;20120;-57
2024/03/29 01:05:41;;;;;;;1.85;0.40;;;13.10;99.90;;;;;;4161539;28;20115;-57
2024/03/29 01:07:43;;;;;;;0.97;0.30;;;13.20;99.90;;;;;;4168262;28;20094;-58
2024/03/29 01:09:44;;;;;;;3.37;0.43;;;13.20;99.90;;;;;;4162706;28;20087;-57
2024/03/29 01:11:45;;;;;;;1.13;0.20;;;13.20;99.90;;;;;;4175222;28;20029;-58
2024/03/29 01:13:47;;;;;;;0.80;0.23;;;13.20;99.90;;;;;;4177605;28;20098;-56
2024/03/29 01:15:48;;;;;;;1.07;0.30;;;13.40;99.90;;;;;;4176803;28;20099;-58
2024/03/29 01:17:49;;;;;;;0.90;0.40;;;13.50;99.90;;;;;;4178079;28;20091;-55
2024/03/29 01:19:50;;;;;;;0.87;0.37;;;13.50;99.90;;;;;;4171781;28;20056;-57
2024/03/29 01:21:51;;;;;;;2.23;0.40;;;13.50;99.90;;;;;;4165504;28;20443;-60
2024/03/29 01:23:53;;;;;;;1.87;0.60;;;13.40;99.90;;;;;;4176480;28;20438;-60
2024/03/29 01:25:54;;;;;;;1.50;0.30;;;13.40;99.90;;;;;;4177502;28;20102;-55
2024/03/29 01:27:55;;;;;;;0.33;0.20;;;13.40;99.90;;;;;;4176933;28;20044;-58
2024/03/29 01:29:57;;;;;;;2.63;0.30;;;13.30;99.90;;;;;;4177371;28;20041;-60
2024/03/29 01:31:58;;;;;;;2.67;0.60;;;13.30;99.90;;;;;;4177587;28;20029;-58
2024/03/29 01:34:02;;;;;;;0.97;0.20;;;13.30;99.90;;;;;;4176794;28;20504;-58
2024/03/29 01:36:04;;;;;;;1.67;0.50;;;13.30;99.90;;;;;;4177515;28;20138;-57
2024/03/29 01:38:05;;;;;;;1.57;0.27;;;13.20;99.90;;;;;;4176209;28;20796;-57
2024/03/29 01:40:08;;;;;;;2.80;0.60;;;13.20;99.90;;;;;;4177298;28;20041;-58
2024/03/29 01:42:09;;;;;;;2.83;0.50;;;13.20;99.90;;;;;;4176732;28;20094;-59
2024/03/29 01:44:11;;;;;;;5.10;0.50;;;13.10;99.90;;;;;;4177041;28;20049;-56
2024/03/29 01:46:12;;;;;;;3.87;1.10;;;13.10;99.90;;;;;;4174861;28;20500;-59
2024/03/29 01:48:13;;;;;;;0.97;0.50;;;13.10;99.90;;;;;;4177541;28;20058;-57
2024/03/29 01:50:15;;;;;;;0.97;0.60;;;13.00;99.90;;;;;;4176350;28;20390;-58
2024/03/29 01:52:18;;;;;;;0.83;0.30;;;13.00;99.90;;;;;;4177115;28;20400;-58
2024/03/29 01:54:19;;;;;;;0.80;0.30;;;13.00;99.90;;;;;;4176097;28;20517;-56
2024/03/29 01:56:22;;;;;;;3.03;0.90;;;13.00;99.90;;;;;;4177291;28;20037;-57
2024/03/29 01:58:24;;;;;;;3.20;0.57;;;13.00;99.90;;;;;;4176083;28;20037;-57
2024/03/29 02:00:26;;;;;;;2.37;0.40;;;13.00;99.90;;;;;;4176489;28;20071;-57
2024/03/29 02:02:28;;;;;;;1.83;0.50;;;13.00;99.90;;;;;;4175572;28;20036;-57
2024/03/29 02:04:29;;;;;;;2.40;0.40;;;13.00;99.90;;;;;;4176673;28;20075;-57
2024/03/29 02:06:31;;;;;;;1.30;0.40;;;13.10;99.90;;;;;;4176806;28;20043;-56
2024/03/29 02:08:34;;;;;;;0.63;0.20;;;13.00;99.90;;;;;;4175880;28;20485;-58
2024/03/29 02:10:36;;;;;;;1.27;0.50;;;13.00;99.90;;;;;;4176974;28;20049;-58
2024/03/29 02:12:37;;;;;;;2.10;0.50;;;13.10;99.90;;;;;;4176453;28;20041;-57
2024/03/29 02:14:40;;;;;;;1.17;0.30;;;13.10;99.90;;;;;;4173709;28;20441;-58
2024/03/29 02:16:42;;;;;;;1.17;0.40;;;13.20;99.90;;;;;;4159844;28;20033;-58
2024/03/29 02:18:43;;;;;;;1.30;0.60;;;13.20;99.90;;;;;;4160728;28;20053;-58
2024/03/29 02:20:44;;;;;;;1.47;0.30;;;13.20;99.90;;;;;;4160115;28;20037;-57
2024/03/29 02:22:54;;;;;;;3.43;0.60;;;13.30;99.90;;;;;;4176000;28;20420;-58
2024/03/29 02:24:56;;;;;;;1.80;0.38;;;13.40;99.90;;;;;;4159848;28;20053;-58
2024/03/29 02:26:57;;;;;;;1.17;0.20;;;13.40;99.90;;;;;;4160739;28;20045;-58
2024/03/29 02:28:58;;;;;;;3.13;0.43;;;13.50;99.90;;;;;;4162366;28;21682;-56
2024/03/29 02:31:00;;;;;;;0.93;0.33;;;13.70;99.90;;;;;;4176946;28;20025;-56
2024/03/29 02:33:01;;;;;;;2.10;0.30;;;13.70;99.90;;;;;;4176378;28;20032;-55
2024/03/29 02:35:03;;;;;;;1.53;0.30;;;13.80;99.90;;;;;;4174996;28;20091;-58
2024/03/29 02:37:04;;;;;;;0.70;0.20;;;13.80;99.90;;;;;;4165016;28;20033;-55
2024/03/29 02:39:06;;;;;;;0.50;0.20;;;13.90;99.90;;;;;;4176322;28;20040;-57
2024/03/29 02:41:07;;;;;;;0.97;0.20;;;14.00;99.90;;;;;;4171610;28;20026;-55
2024/03/29 02:43:08;;;;;;;1.83;0.23;;;14.00;99.90;;;;;;4159501;28;20038;-56
2024/03/29 02:45:10;;;;;;;3.30;0.60;;;14.00;99.90;;;;;;4159188;28;20033;-55
2024/03/29 02:47:11;;;;;;;0.65;0.20;;;14.10;99.90;;;;;;4159854;28;20425;-57
2024/03/29 02:49:12;;;;;;;4.13;0.40;;;14.10;99.90;;;;;;4160707;28;20041;-56
2024/03/29 02:51:13;;;;;;;2.03;0.30;;;14.10;99.90;;;;;;4159955;28;20045;-57
2024/03/29 02:53:14;;;;;;;0.63;0.20;;;14.10;99.90;;;;;;4165543;28;20092;-57
2024/03/29 02:55:16;;;;;;;2.38;0.30;;;14.10;99.90;;;;;;4175848;28;20558;-54
2024/03/29 02:57:17;;;;;;;1.17;0.50;;;14.10;99.90;;;;;;4176753;28;20075;-56
2024/03/29 02:59:18;;;;;;;1.30;0.30;;;14.00;99.90;;;;;;4176028;28;20079;-57
2024/03/29 03:01:20;;;;;;;2.90;0.45;;;13.90;99.90;;;;;;4177159;28;20037;-55
2024/03/29 03:03:26;;;;;;;2.20;0.50;;;13.70;99.90;;;;;;4175711;28;20087;-56
2024/03/29 03:05:29;;;;;;;4.27;0.30;;;13.50;99.90;;;;;;4176783;28;20098;-57
2024/03/29 03:12:09;;;;;;;0.10;0.10;;;12.90;99.90;;;;;;4177331;28;20359;-57
2024/03/29 03:14:11;;;;;;;1.30;0.20;;;12.80;99.90;;;;;;4179484;28;20071;-55
2024/03/29 03:16:12;;;;;;;0.40;0.10;;;12.80;99.90;;;;;;4179019;28;20477;-58
2024/03/29 03:18:13;;;;;;;0.83;0.20;;;12.70;99.90;;;;;;4180186;28;20039;-57
2024/03/29 03:20:16;;;;;;;2.40;0.10;;;12.70;99.90;;;;;;4179577;28;20033;-58
2024/03/29 03:22:17;;;;;;;0.33;0.30;;;12.60;99.90;;;;;;4179053;28;20045;-57
2024/03/29 03:24:18;;;;;;;0.30;0.00;;;12.60;99.90;;;;;;4179603;28;20041;-57
2024/03/29 03:26:20;;;;;;;1.70;0.20;;;12.60;99.90;;;;;;4178588;28;20460;-56
2024/03/29 03:28:21;;;;;;;0.57;0.10;;;12.60;99.90;;;;;;4179979;28;20094;-58
2024/03/29 03:30:23;;;;;;;0.20;0.00;;;12.60;99.90;;;;;;4168943;28;20809;-56
2024/03/29 03:32:24;;;;;;;0.50;0.03;;;12.60;99.90;;;;;;4163146;28;20095;-58
2024/03/29 03:34:25;;;;;;;0.13;0.00;;;12.60;99.90;;;;;;4162523;28;20095;-58
2024/03/29 03:36:26;;;;;;;1.27;0.37;;;12.60;99.90;;;;;;4163334;28;20025;-54
2024/03/29 03:38:28;;;;;;;0.50;0.00;;;12.50;99.90;;;;;;4162643;28;20030;-52
2024/03/29 03:40:29;;;;;;;1.50;0.33;;;12.60;99.90;;;;;;4162973;28;20030;-52
2024/03/29 03:42:31;;;;;;;0.77;0.57;;;12.50;99.90;;;;;;4169776;28;20075;-53
2024/03/29 03:44:32;;;;;;;1.67;1.23;;;12.50;99.90;;;;;;4167524;28;20038;-58
2024/03/29 03:46:33;;;;;;;0.77;0.43;;;12.40;99.90;;;;;;4161782;28;20033;-53
2024/03/29 03:48:34;;;;;;;0.53;0.10;;;12.50;99.90;;;;;;4174552;28;20099;-57
2024/03/29 03:50:36;;;;;;;0.43;0.10;;;12.40;99.90;;;;;;4178694;28;20033;-58
2024/03/29 03:52:37;;;;;;;0.20;0.10;;;12.40;99.90;;;;;;4179007;28;20045;-56
2024/03/29 03:54:38;;;;;;;0.30;0.10;;;12.40;99.90;;;;;;4178870;28;20087;-55
2024/03/29 03:56:39;;;;;;;4.00;0.10;;;12.40;99.90;;;;;;4178290;28;20033;-56
2024/03/29 03:58:41;;;;;;;1.20;0.10;;;12.30;99.90;;;;;;4179088;28;20458;-59
2024/03/29 04:00:43;;;;;;;1.50;0.10;;;12.30;99.90;;;;;;4167356;28;20029;-59
2024/03/29 04:02:49;;;;;;;0.40;0.00;;;12.30;99.90;;;;;;4162553;28;20167;-59
2024/03/29 04:04:50;;;;;;;0.20;0.10;;;12.30;99.90;;;;;;4161956;28;20445;-59
2024/03/29 04:06:51;;;;;;;0.40;0.10;;;12.30;99.90;;;;;;4163381;28;20049;-57
2024/03/29 04:08:52;;;;;;;0.07;0.00;;;12.30;99.90;;;;;;4173911;28;20103;-58
2024/03/29 04:10:54;;;;;;;1.40;0.10;;;12.30;99.90;;;;;;4162729;28;20064;-56
2024/03/29 04:12:55;;;;;;;0.30;0.03;;;12.30;99.90;;;;;;4161777;28;20030;-58
2024/03/29 04:14:56;;;;;;;0.93;0.10;;;12.20;99.90;;;;;;4162787;28;20045;-57
2024/03/29 04:16:57;;;;;;;2.97;0.30;;;12.20;99.90;;;;;;4161567;28;20053;-58
2024/03/29 04:18:59;;;;;;;0.40;0.20;;;12.30;99.90;;;;;;4163107;28;20045;-58
2024/03/29 04:21:02;;;;;;;0.80;0.10;;;12.30;98.90;;;;;;4162218;28;20096;-59
2024/03/29 04:23:06;;;;;;;0.93;0.00;;;12.40;98.30;;;;;;4161236;28;20418;-58
2024/03/29 04:25:08;;;;;;;2.33;0.20;;;12.40;98.20;;;;;;4161179;28;20029;-57
2024/03/29 04:27:09;;;;;;;0.20;0.00;;;12.40;97.80;;;;;;4161741;28;20478;-56
2024/03/29 04:29:11;;;;;;;0.10;0.00;;;12.50;97.50;;;;;;4175382;28;20496;-55
2024/03/29 04:31:12;;;;;;;0.00;0.00;;;12.50;97.50;;;;;;4177331;28;20033;-54
2024/03/29 04:33:13;;;;;;;0.30;0.00;;;12.80;97.10;;;;;;4178240;28;20045;-55
2024/03/29 04:35:14;;;;;;;0.70;0.20;;;13.20;96.80;;;;;;4177714;28;20493;-58
2024/03/29 04:37:16;;;;;;;0.90;0.40;;;13.60;96.20;;;;;;4178405;28;20037;-54
2024/03/29 04:39:18;;;;;;;1.07;0.00;;;14.00;95.90;;;;;;4177707;28;20078;-57
2024/03/29 04:41:19;;;;;;;0.23;0.00;;;14.30;95.40;;;;;;4178233;28;20110;-57
2024/03/29 04:43:23;;;;;;;1.17;0.10;;;14.60;95.00;;;;;;4177166;28;20036;-56
2024/03/29 04:45:24;;;;;;;0.97;0.00;;;15.00;94.50;;;;;;4176824;28;20033;-57
2024/03/29 04:47:26;;;;;;;0.30;0.00;;;15.20;93.60;;;;;;4177271;28;20099;-57
2024/03/29 04:49:33;;;;;;;0.63;0.10;;;15.40;93.10;;;;;;4178902;28;20037;-57
2024/03/29 04:51:34;;;;;;;0.98;0.13;;;15.50;92.80;;;;;;4177153;28;20041;-56
2024/03/29 04:53:37;;;;;;;0.30;0.20;;;15.60;92.50;;;;;;4177866;28;20114;-55
2024/03/29 04:55:39;;;;;;;0.68;0.30;;;15.80;92.40;;;;;;4177761;28;20024;-57
2024/03/29 04:57:40;;;;;;;2.65;0.20;;;16.00;92.40;;;;;;4177718;28;20055;-53
2024/03/29 04:59:43;;;;;;;0.03;0.00;;;16.20;92.30;;;;;;4177737;28;20049;-58
2024/03/29 05:01:46;;;;;;;0.28;0.10;;;16.20;92.30;;;;;;4177564;28;20350;-57
2024/03/29 05:03:48;;;;;;;1.10;0.20;;;16.20;92.40;;;;;;4178184;28;20029;-57
2024/03/29 05:05:50;;;;;;;0.90;0.30;;;16.20;92.50;;;;;;4176775;28;20040;-58
2024/03/29 05:07:52;;;;;;;3.03;0.17;;;16.20;92.60;;;;;;4177831;28;20060;-58
2024/03/29 05:09:53;;;;;;;4.05;0.15;;;15.80;92.70;;;;;;4176775;28;20094;-57
2024/03/29 05:11:54;;;;;;;1.67;0.10;;;15.90;93.00;;;;;;4178008;28;20512;-59
2024/03/29 05:14:00;;;;;;;1.50;0.13;;;15.90;92.90;;;;;;4176380;28;20045;-56
2024/03/29 05:16:01;;;;;;;0.52;0.10;;;15.80;92.90;;;;;;4177447;28;21238;-56
2024/03/29 05:18:03;;;;;;;1.45;0.20;;;15.70;93.00;;;;;;4177197;28;20041;-58
2024/03/29 05:20:05;;;;;;;1.20;0.10;;;15.80;93.10;;;;;;4178328;28;20116;-54
2024/03/29 05:22:06;;;;;;;0.20;0.10;;;16.10;93.20;;;;;;4177095;28;20087;-55
2024/03/29 05:24:08;;;;;;;0.30;0.03;;;16.20;92.80;;;;;;4177945;28;20143;-59
2024/03/29 05:26:09;;;;;;;0.20;0.00;;;16.20;92.80;;;;;;4176908;28;20099;-58
2024/03/29 05:28:10;;;;;;;1.60;0.13;;;16.20;92.50;;;;;;4177229;28;20174;-57
2024/03/29 05:30:13;;;;;;;0.10;0.08;;;16.00;92.60;;;;;;4176483;28;20033;-57
2024/03/29 05:32:14;;;;;;;0.28;0.10;;;15.90;92.60;;;;;;4177117;28;20033;-58
2024/03/29 05:34:15;;;;;;;0.63;0.10;;;15.70;92.50;;;;;;4176955;28;20048;-56
2024/03/29 05:36:18;;;;;;;0.10;0.00;;;15.60;92.70;;;;;;4176088;28;20032;-58
2024/03/29 05:38:19;;;;;;;1.02;0.45;;;15.70;92.60;;;;;;4177651;28;20500;-59
2024/03/29 05:40:27;;;;;;;0.52;0.10;;;15.60;92.50;;;;;;4176715;28;20048;-58
2024/03/29 05:42:30;;;;;;;0.00;0.00;;;15.40;92.60;;;;;;4177919;28;20028;-55
2024/03/29 05:44:31;;;;;;;0.17;0.00;;;15.40;92.50;;;;;;4176361;28;20048;-55
2024/03/29 05:46:33;;;;;;;1.50;0.22;;;15.60;92.50;;;;;;4177751;28;20098;-56
2024/03/29 05:48:34;;;;;;;0.50;0.30;;;16.10;92.30;;;;;;4176387;28;20106;-53
2024/03/29 05:50:35;;;;;;;1.55;0.17;;;16.40;91.90;;;;;;4177203;28;20041;-59
2024/03/29 05:52:36;;;;;;;2.30;0.10;;;16.90;91.80;;;;;;4176664;28;20082;-55
2024/03/29 05:54:38;;;;;;;0.17;0.10;;;16.80;91.20;;;;;;4177274;28;20037;-55
2024/03/29 05:56:39;;;;;;;0.57;0.15;;;16.50;91.00;;;;;;4176089;28;20049;-55
2024/03/29 05:58:40;;;;;;;3.25;0.20;;;16.60;91.20;;;;;;4177385;28;20052;-57
2024/03/29 06:00:41;;;;;;;0.20;0.13;;;16.80;90.80;;;;;;4176018;28;20024;-58
2024/03/29 06:02:45;;;;;;;0.38;0.13;;;17.00;90.50;;;;;;4177011;28;20041;-54
2024/03/29 06:04:47;;;;;;;0.32;0.30;;;17.20;90.00;;;;;;4176215;28;20088;-58
2024/03/29 06:06:48;;;;;;;0.68;0.10;;;17.20;88.30;;;;;;4175959;28;20496;-57
2024/03/29 06:08:51;;;;;;;0.57;0.10;;;17.10;87.60;;;;;;4176983;28;20082;-55
2024/03/29 06:10:52;;;;;;;0.47;0.20;;;17.00;87.20;;;;;;4175747;28;20370;-56
2024/03/29 06:12:53;;;;;;;0.10;0.00;;;17.20;85.90;;;;;;4176821;28;20033;-55
2024/03/29 06:17:23;;;;;;;1.33;0.10;;;17.00;83.90;;;;;;4176986;28;20033;-55
2024/03/29 06:19:26;;;;;;;1.27;0.10;;;16.80;82.90;;;;;;4176430;28;20096;-56
2024/03/29 06:21:28;;;;;;;0.20;0.10;;;16.60;82.40;;;;;;4176733;28;20493;-56
2024/03/29 06:23:29;;;;;;;1.88;0.10;;;16.70;81.80;;;;;;4175706;28;20091;-56
2024/03/29 06:25:30;;;;;;;0.15;0.03;;;16.70;81.50;;;;;;4177038;28;20523;-53
2024/03/29 06:27:33;;;;;;;0.93;0.43;;;16.70;81.10;;;;;;4175664;28;20382;-56
2024/03/29 06:29:34;;;;;;;0.35;0.20;;;16.60;80.60;;;;;;4176177;28;20110;-55
2024/03/29 06:31:35;;;;;;;0.40;0.10;;;16.40;80.40;;;;;;4175246;28;20033;-55
2024/03/29 06:33:37;;;;;;;3.45;0.60;;;16.50;80.50;;;;;;4177120;28;20037;-55
2024/03/29 06:35:38;;;;;;;1.65;0.22;;;16.30;79.60;;;;;;4175838;28;20090;-56
2024/03/29 06:37:40;;;;;;;0.63;0.00;;;15.90;79.40;;;;;;4176409;28;20055;-57
2024/03/29 06:39:43;;;;;;;0.05;0.00;;;15.60;79.10;;;;;;4175803;28;20148;-55
2024/03/29 06:41:44;;;;;;;1.65;0.10;;;15.50;79.60;;;;;;4176548;28;20117;-52
2024/03/29 06:43:45;;;;;;;5.40;0.20;;;15.60;79.80;;;;;;4176231;28;20036;-57
2024/03/29 06:45:46;;;;;;;0.47;0.03;;;15.90;79.90;;;;;;4176022;28;20037;-59
2024/03/29 06:47:48;;;;;;;0.20;0.00;;;16.20;79.90;;;;;;4178570;28;20049;-57
2024/03/29 06:49:49;;;;;;;0.30;0.00;;;16.00;79.60;;;;;;4179334;28;20186;-56
2024/03/29 06:51:50;;;;;;;0.25;0.10;;;16.10;80.00;;;;;;4179834;28;20098;-54
2024/03/29 06:53:52;;;;;;;0.10;0.00;;;16.00;79.70;;;;;;4179548;28;20040;-57
2024/03/29 06:55:56;;;;;;;1.10;0.10;;;15.80;79.80;;;;;;4179881;28;20049;-57
2024/03/29 06:57:57;;;;;;;2.17;0.10;;;15.80;80.10;;;;;;4178681;28;20045;-55
2024/03/29 06:59:58;;;;;;;0.20;0.03;;;16.10;80.30;;;;;;4179855;28;20130;-56
2024/03/29 07:01:59;;;;;;;0.05;0.00;;;16.30;79.70;;;;;;4178977;28;20036;-56
2024/03/29 07:04:01;;;;;;;0.43;0.00;;;16.30;79.20;;;;;;4180039;28;20052;-56
2024/03/29 07:06:02;;;;;;;0.13;0.00;;;16.60;78.90;;;;;;4178582;28;20187;-57
2024/03/29 07:08:04;;;;;;;0.98;0.40;;;16.80;78.80;;;;;;4180167;28;20465;-56
2024/03/29 07:10:06;;;;;;;1.48;0.00;;;17.00;78.30;;;;;;4178513;28;20472;-56
2024/03/29 07:12:07;;;;;;;0.15;0.00;;;17.00;78.20;;;;;;4179310;28;20045;-57
2024/03/29 07:14:08;;;;;;;0.73;0.10;;;17.10;78.30;;;;;;4178780;28;20060;-55
2024/03/29 07:16:10;;;;;;;0.08;0.00;;;17.20;77.80;;;;;;4179312;28;20536;-58
2024/03/29 07:18:11;;;;;;;0.10;0.10;;;17.10;77.10;;;;;;4179373;28;20045;-57
2024/03/29 07:20:12;;;;;;;0.20;0.00;;;17.00;76.70;;;;;;4179074;28;20468;-57
2024/03/29 07:22:14;;;;;;;0.47;0.10;;;16.60;76.20;;;;;;4179558;28;20041;-57
2024/03/29 07:24:15;;;;;;;0.85;0.10;;;16.50;76.50;;;;;;4178411;28;20038;-53
2024/03/29 07:26:16;;;;;;;0.43;0.10;;;16.60;76.40;;;;;;4179826;28;20025;-54
2024/03/29 07:28:17;;;;;;;1.75;0.80;;;16.60;76.40;;;;;;4178291;28;20057;-56
2024/03/29 07:30:19;;;;;;;0.65;0.10;;;16.90;76.40;;;;;;4179159;28;20041;-59
2024/03/29 07:32:20;;;;;;;0.52;0.00;;;17.00;75.60;;;;;;4178597;28;20029;-53
2024/03/29 07:34:21;;;;;;;0.43;0.10;;;17.10;75.80;;;;;;4179336;28;20571;-57
2024/03/29 07:36:25;;;;;;;0.28;0.10;;;17.10;75.70;;;;;;4178265;28;20087;-58
2024/03/29 07:38:26;;;;;;;2.05;0.30;;;17.20;75.60;;;;;;4179414;28;20145;-55
2024/03/29 07:40:28;;;;;;;0.10;0.00;;;17.50;75.40;;;;;;4178195;28;20470;-52
2024/03/29 07:42:29;;;;;;;0.30;0.10;;;17.50;75.10;;;;;;4179424;28;20021;-58
2024/03/29 07:44:30;;;;;;;0.32;0.10;;;17.50;74.70;;;;;;4177966;28;20055;-56
2024/03/29 07:46:36;;;;;;;2.72;0.20;;;17.40;74.50;;;;;;4178541;28;20041;-57
2024/03/29 07:48:37;;;;;;;2.00;0.50;;;17.50;75.20;;;;;;4179139;28;20058;-54
2024/03/29 07:50:42;;;;;;;1.58;0.45;;;17.50;75.00;;;;;;4178481;28;20083;-58
2024/03/29 07:52:45;;;;;;;3.28;0.20;;;17.60;75.00;;;;;;4178642;28;20091;-55
2024/03/29 07:54:46;;;;;;;0.90;0.10;;;17.80;74.90;;;;;;4177889;28;20138;-54
2024/03/29 07:56:48;;;;;;;4.00;0.28;;;18.00;74.20;;;;;;4179146;28;20086;-56
2024/03/29 07:58:53;;;;;;;1.63;0.10;;;17.40;73.70;;;;;;4177953;28;20033;-56
2024/03/29 08:00:54;;;;;;;1.10;0.30;;;17.30;74.70;;;;;;4178954;28;20045;-56
2024/03/29 08:02:55;;;;;;;0.22;0.10;;;17.50;75.20;;;;;;4177758;28;20438;-54
2024/03/29 08:04:57;;;;;;;1.13;0.20;;;17.60;74.80;;;;;;4177786;28;20142;-59
2024/03/29 08:06:58;;;;;;;7.95;0.88;;;17.80;74.60;;;;;;4177906;28;20056;-57
2024/03/29 08:08:59;;;;;;;1.55;0.43;;;17.20;73.50;;;;;;4178916;28;20053;-57
2024/03/29 08:11:01;;;;;;;1.52;0.10;;;17.20;73.70;;;;;;4177747;28;20515;-55
2024/03/29 08:13:02;;;;;;;0.47;0.10;;;17.10;74.00;;;;;;4179088;28;20388;-55
2024/03/29 08:15:04;;;;;;;1.38;0.38;;;17.40;74.10;;;;;;4177778;28;20474;-55
2024/03/29 08:17:09;;;;;;;2.88;0.25;;;17.60;74.10;;;;;;4178898;28;20426;-56
2024/03/29 08:19:10;;;;;;;5.30;0.60;;;17.50;74.60;;;;;;4178138;28;20614;-58
2024/03/29 08:21:12;;;;;;;3.10;0.50;;;17.80;74.20;;;;;;4178398;28;20021;-58
2024/03/29 08:23:13;;;;;;;2.03;0.28;;;17.80;74.10;;;;;;4177923;28;20088;-57
2024/03/29 08:25:14;;;;;;;2.58;0.20;;;17.70;73.30;;;;;;4177604;28;20045;-57
2024/03/29 08:27:16;;;;;;;1.08;0.43;;;17.50;73.30;;;;;;4178730;28;20036;-56
2024/03/29 08:29:17;;;;;;;8.07;0.47;;;17.70;73.00;;;;;;4176798;28;20071;-56
2024/03/29 08:31:19;;;;;;;2.45;0.20;;;17.50;71.90;;;;;;4178381;28;20041;-55
2024/03/29 08:33:21;;;;;;;5.45;0.30;;;17.40;71.40;;;;;;4177206;28;20140;-57
2024/03/29 08:35:22;;;;;;;11.02;0.60;;;17.40;71.20;;;;;;4178442;28;20048;-56
2024/03/29 08:37:23;;;;;;;4.00;0.60;;;17.40;72.00;;;;;;4177329;28;20045;-56
2024/03/29 08:39:24;;;;;;;0.35;0.10;;;17.50;73.10;;;;;;4178356;28;20098;-54
2024/03/29 08:41:26;;;;;;;6.50;0.40;;;17.70;72.00;;;;;;4177469;28;20025;-54
2024/03/29 08:43:27;;;;;;;2.55;0.20;;;17.80;71.50;;;;;;4178068;28;20037;-57
2024/03/29 08:45:28;;;;;;;1.67;0.80;;;17.50;71.70;;;;;;4176447;28;20087;-57
2024/03/29 08:47:29;;;;;;;0.30;0.10;;;17.50;71.40;;;;;;4177874;28;20037;-58
2024/03/29 08:49:31;;;;;;;1.75;0.10;;;17.80;71.20;;;;;;4178101;28;20083;-51
2024/03/29 08:51:32;;;;;;;1.40;0.32;;;17.90;69.90;;;;;;4177616;28;20432;-58
2024/03/29 08:53:34;;;;;;;0.93;0.20;;;17.60;69.00;;;;;;4177748;28;21119;-56
2024/03/29 08:55:40;;;;;;;8.63;1.27;;;17.70;68.70;;;;;;4177166;28;20087;-58
2024/03/29 08:57:41;;;;;;;6.20;0.30;;;17.50;68.80;;;;;;4177786;28;20049;-53
2024/03/29 08:59:42;;;;;;;2.67;0.22;;;17.40;68.70;;;;;;4176697;28;20041;-56
2024/03/29 09:01:48;;;;;;;0.28;0.10;;;17.10;68.60;;;;;;4177891;28;20086;-56
2024/03/29 09:03:50;;;;;;;1.85;0.10;;;16.80;69.00;;;;;;4176462;28;20075;-52
2024/03/29 09:05:51;;;;;;;5.15;0.20;;;16.80;69.40;;;;;;4177623;28;20052;-56
2024/03/29 09:07:52;;;;;;;1.65;0.30;;;16.80;69.70;;;;;;4176927;28;20036;-55
2024/03/29 09:09:54;;;;;;;1.00;0.22;;;17.00;69.80;;;;;;4177711;28;20424;-58
2024/03/29 09:11:55;;;;;;;1.15;0.20;;;17.10;70.30;;;;;;4176590;28;20052;-55
2024/03/29 09:13:58;;;;;;;0.73;0.30;;;17.00;69.80;;;;;;4177500;28;20087;-58
2024/03/29 09:15:59;;;;;;;3.92;0.20;;;17.10;69.50;;;;;;4176412;28;20048;-56
2024/03/29 09:18:09;;;;;;;0.20;0.10;;;17.30;69.60;;;;;;4177629;28;20103;-58
2024/03/29 09:20:11;;;;;;;0.55;0.20;;;17.70;69.10;;;;;;4177344;28;20025;-54
2024/03/29 09:22:12;;;;;;;3.85;0.20;;;18.10;68.40;;;;;;4177183;28;20079;-53
2024/03/29 09:24:14;;;;;;;0.32;0.00;;;17.80;67.50;;;;;;4177019;28;20420;-56
2024/03/29 09:26:15;;;;;;;0.00;0.00;;;17.80;68.50;;;;;;4177044;28;20622;-56
2024/03/29 09:28:16;;;;;;;0.85;0.03;;;17.90;68.30;;;;;;4176893;28;20048;-56
2024/03/29 09:30:19;;;;;;;0.75;0.10;;;18.10;68.20;;;;;;4176852;28;20075;-54
2024/03/29 09:32:21;;;;;;;3.03;0.10;;;18.40;68.10;;;;;;4175683;28;20044;-53
2024/03/29 09:34:23;;;;;;;1.00;0.10;;;18.40;67.40;;;;;;4176347;28;20115;-56
2024/03/29 09:36:24;;;;;;;1.55;0.00;;;18.50;67.50;;;;;;4177358;28;20047;-56
2024/03/29 09:38:26;;;;;;;1.15;0.08;;;18.60;67.40;;;;;;4176548;28;20025;-55
2024/03/29 09:40:29;;;;;;;3.78;0.10;;;18.60;66.50;;;;;;4177409;28;20095;-56
2024/03/29 09:42:32;;;;;;;2.50;0.32;;;18.00;65.90;;;;;;4176018;28;20091;-55
2024/03/29 09:44:37;;;;;;;0.20;0.00;;;17.80;66.90;;;;;;4177106;28;20041;-57
2024/03/29 09:46:41;;;;;;;0.50;0.20;;;17.70;67.70;;;;;;4176354;28;20098;-57
2024/03/29 09:48:48;;;;;;;2.58;0.10;;;17.50;67.70;;;;;;4177128;28;20095;-56
2024/03/29 09:50:52;;;;;;;0.20;0.00;;;17.30;67.80;;;;;;4176229;28;20040;-57
2024/03/29 09:52:54;;;;;;;0.10;0.00;;;17.40;67.60;;;;;;4177366;28;20071;-57
2024/03/29 09:54:56;;;;;;;1.80;0.10;;;17.60;67.60;;;;;;4176234;28;20017;-53
2024/03/29 09:56:58;;;;;;;0.57;0.05;;;17.60;67.40;;;;;;4177213;28;20375;-58
2024/03/29 09:59:01;;;;;;;0.88;0.20;;;17.70;67.10;;;;;;4176362;28;20161;-55
2024/03/29 10:01:06;;;;;;;1.33;0.25;;;17.80;66.50;;;;;;4176916;28;20358;-54
2024/03/29 10:03:09;;;;;;;1.10;0.10;;;17.70;65.70;;;;;;4176449;28;20023;-54
2024/03/29 10:05:12;;;;;;;0.03;0.00;;;17.70;65.90;;;;;;4176331;28;20037;-53
2024/03/29 10:07:15;;;;;;;0.60;0.10;;;17.70;65.40;;;;;;4176151;28;20032;-55
2024/03/29 10:09:19;;;;;;;1.55;0.57;;;17.80;65.30;;;;;;4176531;28;20041;-53
2024/03/29 10:11:21;;;;;;;0.20;0.10;;;17.90;65.20;;;;;;4176590;28;20033;-56
2024/03/29 10:13:23;;;;;;;0.52;0.03;;;17.90;65.00;;;;;;4175718;28;20182;-59
2024/03/29 10:15:27;;;;;;;0.63;0.03;;;17.70;64.90;;;;;;4177162;28;20045;-56
2024/03/29 10:17:28;;;;;;;14.35;6.85;;;17.50;65.00;;;;;;4175644;28;20079;-56
2024/03/29 10:19:30;;;;;;;2.30;0.47;;;17.40;65.60;;;;;;4177256;28;20044;-56
2024/03/29 10:21:32;;;;;;;3.33;1.80;;;17.40;66.00;;;;;;4174591;28;20041;-58
2024/03/29 10:23:37;;;;;;;230.38;110.72;;;17.60;66.40;;;;;;4176523;28;20456;-58
2024/03/29 10:25:40;;;;;;;6.60;2.75;;;17.90;66.70;;;;;;4176016;28;20389;-57
2024/03/29 10:27:41;;;;;;;4.95;1.30;;;18.00;66.10;;;;;;4176834;28;20473;-57
2024/03/29 10:29:42;;;;;;;16.95;7.90;;;18.00;66.10;;;;;;4175911;28;20036;-57
2024/03/29 10:31:44;;;;;;;0.60;0.43;;;18.20;66.00;;;;;;4176487;28;20106;-58
2024/03/29 10:33:45;;;;;;;5.80;3.15;;;18.10;65.40;;;;;;4176055;28;20021;-56
2024/03/29 10:35:46;;;;;;;1.92;1.02;;;17.90;65.80;;;;;;4176926;28;20033;-59
2024/03/29 10:37:48;;;;;;;2.20;0.10;;;17.70;65.20;;;;;;4175785;28;20037;-55
2024/03/29 10:39:50;;;;;;;1.67;0.20;;;17.70;66.00;;;;;;4176200;28;20118;-57